Time;durP1;ratioP1;P1;durP2;ratioP2;P2;SDS_P1;SDS_P2;PMS_P1;PMS_P2;Temp;Humidity;BMP_temperature;BMP_pressure;BME280_temperature;BME280_humidity;BME280_pressure;Samples;Min_cycle;Max_cycle;Signal;HPM_P1;HPM_P2
2023/02/18 00:00:02;;;;;;;7.97;3.22;;;;;;;5.41;75.73;98029.78;5014279;28;20045;-72
2023/02/18 00:02:29;;;;;;;8.32;2.90;;;;;;;5.39;75.76;98032.44;5015557;28;20498;-73
2023/02/18 00:04:56;;;;;;;8.27;2.08;;;;;;;5.37;75.84;98028.22;5010829;28;20041;-73
2023/02/18 00:07:23;;;;;;;4.40;2.28;;;;;;;5.40;75.44;98038.44;5012758;28;20037;-73
2023/02/18 00:09:50;;;;;;;5.43;1.80;;;;;;;5.41;75.79;98047.91;5014235;28;20052;-73
2023/02/18 00:12:18;;;;;;;8.25;2.03;;;;;;;5.40;75.85;98041.03;5014589;28;20441;-73
2023/02/18 00:14:45;;;;;;;3.30;1.77;;;;;;;5.39;76.07;98050.56;5006639;28;20037;-73
2023/02/18 00:17:12;;;;;;;3.10;1.20;;;;;;;5.40;76.03;98051.41;5009113;28;20041;-72
2023/02/18 00:19:38;;;;;;;1.73;1.35;;;;;;;5.38;75.82;98050.63;5011291;28;20041;-73
2023/02/18 00:22:05;;;;;;;3.20;1.33;;;;;;;5.38;75.79;98059.25;5014133;28;20060;-73
2023/02/18 00:24:32;;;;;;;2.85;1.02;;;;;;;5.38;75.96;98066.16;5011522;28;20409;-73
2023/02/18 00:26:59;;;;;;;1.75;0.73;;;;;;;5.37;75.83;98065.31;5013773;28;20049;-73
2023/02/18 00:29:28;;;;;;;2.58;0.63;;;;;;;5.39;76.03;98067.84;5014147;28;20690;-73
2023/02/18 00:31:54;;;;;;;4.85;0.70;;;;;;;5.37;75.97;98072.22;5012251;28;20046;-73
2023/02/18 00:34:21;;;;;;;1.80;0.80;;;;;;;5.37;75.97;98069.63;5012135;28;20052;-73
2023/02/18 00:36:48;;;;;;;1.70;0.40;;;;;;;5.38;75.83;98081.69;5013326;28;20056;-73
2023/02/18 00:39:15;;;;;;;2.55;1.50;;;;;;;5.39;76.01;98078.19;5011520;28;20060;-72
2023/02/18 00:41:43;;;;;;;0.70;0.40;;;;;;;5.39;75.83;98085.97;5013277;28;20360;-73
2023/02/18 00:44:10;;;;;;;0.40;0.30;;;;;;;5.38;75.64;98092.06;5013215;28;20413;-73
2023/02/18 00:46:40;;;;;;;0.50;0.30;;;;;;;5.38;75.99;98092.06;5016789;28;20516;-73
2023/02/18 00:49:07;;;;;;;0.77;0.30;;;;;;;5.36;75.93;98094.69;5018180;28;20055;-73
2023/02/18 00:51:34;;;;;;;0.70;0.30;;;;;;;5.37;75.86;98095.53;5012473;28;20533;-73
2023/02/18 00:54:01;;;;;;;0.88;0.30;;;;;;;5.37;75.79;98111.06;5013254;28;20045;-73
2023/02/18 00:56:28;;;;;;;0.60;0.30;;;;;;;5.35;75.94;98102.50;5014538;28;20068;-73
2023/02/18 00:58:55;;;;;;;0.70;0.32;;;;;;;5.36;75.88;98114.56;5016195;28;20056;-73
2023/02/18 01:01:23;;;;;;;2.08;0.20;;;;;;;5.36;75.74;98119.75;5015197;28;20044;-73
2023/02/18 01:03:51;;;;;;;0.55;0.28;;;;;;;5.35;75.77;98123.22;5013451;28;20048;-73
2023/02/18 01:06:18;;;;;;;0.40;0.20;;;;;;;5.35;75.70;98123.22;5016096;28;20060;-73
2023/02/18 01:08:45;;;;;;;0.32;0.20;;;;;;;5.34;75.91;98126.72;5015760;28;20507;-73
2023/02/18 01:11:13;;;;;;;0.30;0.30;;;;;;;5.27;75.84;98123.53;5011274;28;20041;-73
2023/02/18 01:13:41;;;;;;;0.98;0.20;;;;;;;5.25;75.40;98116.72;5008218;28;20046;-72
2023/02/18 01:16:09;;;;;;;0.40;0.20;;;;;;;5.31;75.65;98137.19;5015089;28;20426;-73
2023/02/18 01:18:36;;;;;;;0.20;0.15;;;;;;;5.31;75.45;98135.44;5005700;28;20045;-73
2023/02/18 01:21:07;;;;;;;0.30;0.20;;;;;;;5.31;75.63;98145.78;5010450;28;20497;-72
2023/02/18 01:23:34;;;;;;;0.40;0.20;;;;;;;5.30;75.66;98145.88;5013098;28;20482;-73
2023/02/18 01:26:01;;;;;;;1.27;0.20;;;;;;;5.30;75.56;98153.63;5014740;28;20065;-73
2023/02/18 01:28:28;;;;;;;0.20;0.20;;;;;;;5.30;75.67;98158.81;5018312;28;20048;-73
2023/02/18 01:30:55;;;;;;;0.85;0.30;;;;;;;5.28;75.63;98158.03;5007542;28;20064;-73
2023/02/18 01:33:22;;;;;;;0.47;0.28;;;;;;;5.17;75.43;98143.75;5013520;28;20597;-72
2023/02/18 01:35:49;;;;;;;2.25;0.20;;;;;;;5.24;75.36;98161.66;5012954;28;20530;-72
2023/02/18 01:38:18;;;;;;;0.40;0.20;;;;;;;5.26;75.48;98175.34;5016210;28;20059;-73
2023/02/18 01:40:48;;;;;;;0.20;0.10;;;;;;;5.24;75.33;98179.75;5013990;28;20052;-73
2023/02/18 01:43:16;;;;;;;2.80;0.20;;;;;;;5.23;75.37;98183.22;5015148;28;20520;-72
2023/02/18 01:45:59;;;;;;;0.50;0.20;;;;;;;5.22;75.29;98189.31;5014046;28;20042;-73
2023/02/18 01:48:30;;;;;;;0.20;0.20;;;;;;;5.19;75.46;98198.88;5012634;28;20052;-72
2023/02/18 01:51:02;;;;;;;0.40;0.20;;;;;;;5.17;75.01;98197.25;5010010;28;20052;-73
2023/02/18 01:53:35;;;;;;;0.43;0.10;;;;;;;5.16;74.92;98209.34;5013951;28;20046;-73
2023/02/18 01:56:05;;;;;;;0.20;0.17;;;;;;;5.11;75.02;98213.84;5013979;28;20049;-73
2023/02/18 01:58:33;;;;;;;0.20;0.13;;;;;;;5.10;74.93;98222.53;5017478;28;20249;-73
2023/02/18 02:01:00;;;;;;;0.50;0.13;;;;;;;5.07;74.75;98222.63;5013430;28;20052;-73
2023/02/18 02:03:27;;;;;;;0.00;0.00;;;;;;;5.05;74.88;98224.44;5006034;28;20625;-73
2023/02/18 02:05:54;;;;;;;0.10;0.00;;;;;;;5.02;74.64;98234.91;5016870;28;20518;-73
2023/02/18 02:08:21;;;;;;;0.30;0.10;;;;;;;4.98;74.64;98241.09;5017288;28;20053;-72
2023/02/18 02:11:04;;;;;;;0.00;0.00;;;;;;;4.95;74.45;98247.22;5013626;28;20046;-73
2023/02/18 02:13:48;;;;;;;0.10;0.00;;;;;;;4.92;74.47;98254.22;5018899;28;20046;-73
2023/02/18 02:16:25;;;;;;;0.00;0.00;;;;;;;4.87;74.21;98269.94;5011827;28;20239;-73
2023/02/18 02:19:02;;;;;;;0.00;0.00;;;;;;;4.84;74.12;98271.75;5016934;28;20037;-73
2023/02/18 02:22:00;;;;;;;0.00;0.00;;;;;;;4.71;74.19;98264.44;5019678;28;20518;-72
2023/02/18 02:25:04;;;;;;;0.00;0.00;;;;;;;4.70;73.84;98273.09;4992806;28;20045;-73
2023/02/18 02:27:54;;;;;;;0.00;0.00;;;;;;;4.65;73.77;98282.75;5015460;28;20046;-73
2023/02/18 02:30:48;;;;;;;0.10;0.00;;;;;;;4.61;73.70;98281.19;5011281;28;20072;-72
2023/02/18 02:33:53;;;;;;;0.00;0.00;;;;;;;4.57;73.59;98294.25;5016752;28;20428;-72
2023/02/18 02:36:26;;;;;;;0.00;0.00;;;;;;;4.50;73.64;98294.47;5017477;28;20048;-72
2023/02/18 02:39:01;;;;;;;0.10;0.00;;;;;;;4.45;73.67;98298.09;5007773;28;20054;-72
2023/02/18 02:41:43;;;;;;;0.00;0.00;;;;;;;4.42;73.74;98300.78;5016295;28;20052;-73
2023/02/18 02:44:19;;;;;;;0.00;0.00;;;;;;;4.24;73.50;98279.84;5018795;28;20103;-72
2023/02/18 02:46:48;;;;;;;0.00;0.00;;;;;;;4.35;73.30;98319.97;5011163;28;20108;-73
2023/02/18 02:49:27;;;;;;;0.00;0.00;;;;;;;4.31;73.21;98318.38;5018539;28;20516;-72
2023/02/18 02:52:01;;;;;;;0.00;0.00;;;;;;;4.25;73.33;98312.53;5011248;28;20037;-72
2023/02/18 02:54:29;;;;;;;0.00;0.00;;;;;;;4.20;73.53;98316.97;5011449;28;20080;-73
2023/02/18 02:57:07;;;;;;;1.77;0.00;;;;;;;4.17;73.22;98326.56;5016664;28;20398;-72
2023/02/18 02:59:36;;;;;;;0.00;0.00;;;;;;;4.14;73.31;98327.53;5008718;28;20053;-72
2023/02/18 03:02:17;;;;;;;0.00;0.00;;;;;;;4.10;73.21;98336.28;5017492;28;20426;-72
2023/02/18 03:04:56;;;;;;;0.00;0.00;;;;;;;4.06;72.96;98340.66;5019218;28;20350;-72
2023/02/18 03:07:42;;;;;;;0.65;0.00;;;;;;;4.02;73.11;98341.66;5010032;28;20041;-72
2023/02/18 03:10:16;;;;;;;;;;;;;;;3.98;73.25;98352.97;5016636;28;20128;-72
2023/02/18 03:12:51;;;;;;;0.00;0.00;;;;;;;3.90;73.18;98348.94;5014369;28;19932;-72
2023/02/18 03:15:24;;;;;;;0.00;0.00;;;;;;;3.89;73.27;98361.00;5010340;28;20050;-72
2023/02/18 03:17:59;;;;;;;0.00;0.00;;;;;;;3.86;73.33;98374.00;5015969;28;20620;-72
2023/02/18 03:20:31;;;;;;;0.00;0.00;;;;;;;3.72;73.22;98360.66;5008922;28;20060;-74
2023/02/18 03:23:03;;;;;;;0.55;0.00;;;;;;;3.77;73.41;98379.47;5008624;28;20054;-69
2023/02/18 03:25:33;;;;;;;0.00;0.00;;;;;;;3.72;72.90;98374.41;5020335;28;20495;-70
2023/02/18 03:28:05;;;;;;;0.70;0.00;;;;;;;3.67;72.93;98378.91;5010102;28;20469;-69
2023/02/18 03:30:39;;;;;;;0.05;0.00;;;;;;;3.66;72.77;98387.50;5017384;28;20266;-69
2023/02/18 03:33:09;;;;;;;0.00;0.00;;;;;;;3.62;73.16;98387.66;5013665;28;20064;-70
2023/02/18 03:35:38;;;;;;;0.00;0.00;;;;;;;3.59;72.96;98386.00;5014154;28;20406;-69
2023/02/18 03:38:12;;;;;;;0.00;0.00;;;;;;;3.55;73.14;98385.22;5017435;28;20049;-69
2023/02/18 03:40:39;;;;;;;0.00;0.00;;;;;;;3.53;73.21;98381.00;5008700;28;20052;-70
2023/02/18 03:43:06;;;;;;;0.00;0.00;;;;;;;3.50;73.31;98387.13;5017777;28;20060;-70
2023/02/18 03:45:33;;;;;;;0.00;0.00;;;;;;;3.46;73.28;98400.13;5016308;28;20049;-70
2023/02/18 03:48:00;;;;;;;0.00;0.00;;;;;;;3.44;72.83;98401.91;5019397;28;20045;-69
2023/02/18 03:50:27;;;;;;;0.00;0.00;;;;;;;3.40;73.51;98410.63;5015957;28;20049;-69
2023/02/18 03:52:54;;;;;;;0.00;0.00;;;;;;;3.38;72.94;98410.66;5016328;28;20048;-69
2023/02/18 03:55:22;;;;;;;0.00;0.00;;;;;;;3.36;73.19;98418.47;5013978;28;20493;-70
2023/02/18 03:57:50;;;;;;;0.00;0.00;;;;;;;3.34;73.08;98420.22;5022059;28;20049;-69
2023/02/18 04:00:19;;;;;;;0.00;0.00;;;;;;;3.29;73.06;98427.25;5018313;28;20488;-70
2023/02/18 04:02:46;;;;;;;0.00;0.00;;;;;;;3.27;73.68;98434.19;5015091;28;20573;-69
2023/02/18 04:05:13;;;;;;;0.00;0.00;;;;;;;3.21;73.06;98434.34;5021830;28;20049;-70
2023/02/18 04:07:40;;;;;;;0.00;0.00;;;;;;;3.22;73.26;98448.09;5020831;28;20782;-69
2023/02/18 04:10:08;;;;;;;0.00;0.00;;;;;;;3.20;73.51;98453.28;5021995;28;20049;-70
2023/02/18 04:12:36;;;;;;;0.00;0.00;;;;;;;3.11;73.44;98450.94;5019973;28;20052;-70
2023/02/18 04:15:04;;;;;;;0.32;0.00;;;;;;;3.16;73.40;98454.28;5015655;28;20518;-69
2023/02/18 04:17:32;;;;;;;0.00;0.00;;;;;;;3.12;73.47;98453.47;5021536;28;20494;-69
2023/02/18 04:19:59;;;;;;;0.00;0.00;;;;;;;3.06;73.29;98463.09;5017656;28;20060;-70
2023/02/18 04:22:26;;;;;;;0.00;0.00;;;;;;;3.07;73.24;98464.78;5020770;28;20053;-69
2023/02/18 04:24:53;;;;;;;0.00;0.00;;;;;;;3.04;73.63;98475.19;5018350;28;20042;-69
2023/02/18 04:27:20;;;;;;;0.00;0.00;;;;;;;3.01;73.30;98472.69;5021166;28;20053;-69
2023/02/18 04:29:48;;;;;;;0.00;0.00;;;;;;;2.99;73.31;98487.34;5020023;28;20049;-69
2023/02/18 04:32:15;;;;;;;0.00;0.00;;;;;;;2.95;73.95;98481.41;5018900;28;20053;-69
2023/02/18 04:34:42;;;;;;;0.00;0.00;;;;;;;2.94;73.86;98490.06;5019922;28;20057;-69
2023/02/18 04:37:09;;;;;;;0.00;0.00;;;;;;;2.93;73.31;98496.94;5020183;28;20048;-69
2023/02/18 04:39:36;;;;;;;0.00;0.00;;;;;;;2.82;73.82;98480.88;5016364;28;20413;-69
2023/02/18 04:42:07;;;;;;;0.00;0.00;;;;;;;2.90;73.78;98503.88;5019870;28;20057;-69
2023/02/18 04:44:34;;;;;;;0.00;0.00;;;;;;;2.87;73.68;98512.53;5021462;28;20655;-69
2023/02/18 04:47:03;;;;;;;0.00;0.00;;;;;;;2.86;73.47;98513.44;5019984;28;20069;-70
2023/02/18 04:49:30;;;;;;;0.00;0.00;;;;;;;2.86;73.40;98523.75;5019881;28;20050;-69
2023/02/18 04:51:57;;;;;;;0.00;0.00;;;;;;;2.83;73.25;98520.41;5017626;28;20045;-68
2023/02/18 04:54:24;;;;;;;0.00;0.00;;;;;;;2.81;73.87;98519.59;5019288;28;20151;-69
2023/02/18 04:56:51;;;;;;;0.00;0.00;;;;;;;2.82;73.84;98536.78;5017629;28;20055;-69
2023/02/18 04:59:18;;;;;;;0.00;0.00;;;;;;;2.81;73.67;98553.09;5021703;28;20049;-69
2023/02/18 05:01:45;;;;;;;0.00;0.00;;;;;;;2.77;73.38;98538.59;5018338;28;20045;-69
2023/02/18 05:04:13;;;;;;;0.00;0.00;;;;;;;2.78;73.68;98555.75;5016800;28;20069;-69
2023/02/18 05:06:41;;;;;;;0.00;0.00;;;;;;;2.75;73.48;98561.81;5016351;28;20046;-68
2023/02/18 05:09:08;;;;;;;0.00;0.00;;;;;;;2.77;73.72;98569.53;5017800;28;20049;-69
2023/02/18 05:11:35;;;;;;;0.00;0.00;;;;;;;2.71;73.91;98565.38;5020281;28;20045;-69
2023/02/18 05:14:02;;;;;;;0.00;0.00;;;;;;;2.72;74.05;98579.09;5018612;28;20050;-68
2023/02/18 05:16:29;;;;;;;0.00;0.00;;;;;;;2.67;73.99;98584.34;5018855;28;20038;-68
2023/02/18 05:18:56;;;;;;;0.00;0.00;;;;;;;2.73;73.56;98597.09;5022505;28;20079;-68
2023/02/18 05:21:25;;;;;;;0.00;0.00;;;;;;;2.69;73.96;98582.59;5023138;28;20513;-68
2023/02/18 05:23:52;;;;;;;0.00;0.00;;;;;;;2.68;73.74;98592.06;5019856;28;20041;-69
2023/02/18 05:26:18;;;;;;;0.00;0.00;;;;;;;2.64;74.07;98599.88;5016761;28;20057;-69
2023/02/18 05:28:45;;;;;;;0.00;0.00;;;;;;;2.68;74.32;98615.25;5016416;28;20045;-68
2023/02/18 05:31:12;;;;;;;0.00;0.00;;;;;;;2.68;74.04;98611.84;5020599;28;20056;-69
2023/02/18 05:33:39;;;;;;;0.00;0.00;;;;;;;2.64;74.30;98615.34;5021566;28;20049;-69
2023/02/18 05:36:07;;;;;;;0.00;0.00;;;;;;;2.65;74.42;98627.38;5021227;28;20053;-69
2023/02/18 05:38:35;;;;;;;0.00;0.00;;;;;;;2.64;73.68;98630.81;5021055;28;20049;-69
2023/02/18 05:41:02;;;;;;;0.00;0.00;;;;;;;2.59;74.36;98627.47;5023896;28;20049;-69
2023/02/18 05:43:29;;;;;;;0.00;0.00;;;;;;;2.63;73.69;98649.75;5021787;28;20056;-69
2023/02/18 05:45:56;;;;;;;0.00;0.00;;;;;;;2.62;73.83;98654.06;5021395;28;20805;-69
2023/02/18 05:48:23;;;;;;;0.00;0.00;;;;;;;2.60;73.84;98649.81;5024996;28;20054;-68
2023/02/18 05:50:52;;;;;;;0.00;0.00;;;;;;;2.62;73.85;98671.25;5020414;28;20045;-69
2023/02/18 05:53:19;;;;;;;0.00;0.00;;;;;;;2.61;74.63;98669.53;5025733;28;20049;-69
2023/02/18 05:55:47;;;;;;;0.10;0.00;;;;;;;2.57;73.77;98662.75;5021528;28;20045;-68
2023/02/18 05:58:15;;;;;;;0.00;0.00;;;;;;;2.34;73.87;98633.13;5022025;28;20054;-69
2023/02/18 06:00:42;;;;;;;0.00;0.00;;;;;;;2.58;73.97;98682.47;5018966;28;20045;-69
2023/02/18 06:03:09;;;;;;;0.00;0.00;;;;;;;2.57;74.10;98696.25;5021953;28;20056;-69
2023/02/18 06:05:36;;;;;;;0.00;0.00;;;;;;;2.51;74.29;98686.91;5022743;28;20418;-69
2023/02/18 06:08:03;;;;;;;0.00;0.00;;;;;;;2.56;74.57;98704.84;5021590;28;20419;-69
2023/02/18 06:10:30;;;;;;;0.00;0.00;;;;;;;2.55;73.87;98719.47;5025886;28;20687;-69
2023/02/18 06:12:59;;;;;;;0.00;0.00;;;;;;;2.54;74.44;98720.34;5017811;28;20491;-69
2023/02/18 06:15:26;;;;;;;0.00;0.00;;;;;;;2.53;73.91;98735.84;5023627;28;20045;-69
2023/02/18 06:17:53;;;;;;;0.38;0.00;;;;;;;2.53;74.52;98743.56;5019845;28;20413;-69
2023/02/18 06:20:20;;;;;;;0.00;0.00;;;;;;;2.48;74.20;98731.63;5021305;28;20048;-70
2023/02/18 06:22:47;;;;;;;0.00;0.00;;;;;;;2.52;74.08;98741.88;5022717;28;20052;-69
2023/02/18 06:25:14;;;;;;;0.00;0.00;;;;;;;2.50;74.54;98730.75;5023861;28;20045;-69
2023/02/18 06:27:40;;;;;;;0.00;0.00;;;;;;;2.50;73.92;98748.78;5023274;28;20413;-69
2023/02/18 06:30:10;;;;;;;0.00;0.00;;;;;;;2.47;74.45;98752.25;5021726;28;20046;-69
2023/02/18 06:32:37;;;;;;;0.00;0.00;;;;;;;2.51;74.05;98758.22;5020210;28;20517;-68
2023/02/18 06:35:04;;;;;;;0.00;0.00;;;;;;;2.51;74.18;98768.53;5022773;28;20498;-69
2023/02/18 06:37:31;;;;;;;0.00;0.00;;;;;;;2.50;74.55;98759.09;5022549;28;20048;-70
2023/02/18 06:39:58;;;;;;;1.42;0.00;;;;;;;2.48;74.50;98774.59;5020822;28;20060;-69
2023/02/18 06:42:25;;;;;;;0.00;0.00;;;;;;;2.48;74.41;98783.19;5020399;28;20497;-70
2023/02/18 06:44:52;;;;;;;0.00;0.00;;;;;;;2.48;73.86;98787.47;5016077;28;20046;-70
2023/02/18 06:47:20;;;;;;;0.00;0.00;;;;;;;2.45;74.27;98801.28;5020235;28;20049;-70
2023/02/18 06:49:47;;;;;;;0.00;0.00;;;;;;;2.46;74.71;98796.97;5018895;28;20049;-70
2023/02/18 06:52:14;;;;;;;1.35;0.00;;;;;;;2.45;74.45;98795.28;5022027;28;20053;-71
2023/02/18 06:54:41;;;;;;;0.00;0.00;;;;;;;2.46;74.20;98796.97;5020487;28;20662;-71
2023/02/18 06:57:08;;;;;;;0.00;0.00;;;;;;;2.45;74.76;98798.69;5017964;28;20056;-71
2023/02/18 06:59:35;;;;;;;0.00;0.00;;;;;;;2.45;74.90;98808.16;5020501;28;20077;-71
2023/02/18 07:02:01;;;;;;;0.00;0.00;;;;;;;2.45;74.86;98806.41;5021618;28;20050;-71
2023/02/18 07:04:30;;;;;;;0.00;0.00;;;;;;;2.45;74.33;98824.47;5021035;28;20059;-71
2023/02/18 07:06:57;;;;;;;0.00;0.00;;;;;;;2.45;74.36;98814.16;5023817;28;20056;-71
2023/02/18 07:09:23;;;;;;;0.00;0.00;;;;;;;2.46;74.21;98823.56;5018272;28;20048;-70
2023/02/18 07:11:50;;;;;;;0.00;0.00;;;;;;;2.46;74.17;98831.31;5020416;28;20045;-69
2023/02/18 07:14:17;;;;;;;0.00;0.00;;;;;;;2.45;74.14;98828.78;5021559;28;20045;-69
2023/02/18 07:16:44;;;;;;;0.00;0.00;;;;;;;2.46;74.09;98839.03;5018863;28;20038;-69
2023/02/18 07:19:11;;;;;;;0.38;0.00;;;;;;;2.46;74.66;98849.34;5022211;28;20053;-69
2023/02/18 07:21:39;;;;;;;0.00;0.00;;;;;;;2.44;74.41;98845.94;5023115;28;20046;-70
2023/02/18 07:24:06;;;;;;;0.00;0.00;;;;;;;2.42;74.26;98842.56;5022102;28;20052;-69
2023/02/18 07:26:33;;;;;;;0.00;0.00;;;;;;;2.46;74.59;98859.66;5021910;28;20513;-69
2023/02/18 07:29:00;;;;;;;0.10;0.00;;;;;;;2.47;74.46;98860.50;5019237;28;20037;-69
2023/02/18 07:31:27;;;;;;;0.00;0.00;;;;;;;2.48;74.37;98865.63;5023693;28;20068;-71
2023/02/18 07:33:54;;;;;;;0.00;0.00;;;;;;;2.29;74.07;98846.19;5022776;28;20053;-72
2023/02/18 07:36:21;;;;;;;0.00;0.00;;;;;;;2.48;74.67;98869.94;5020875;28;20128;-69
2023/02/18 07:38:49;;;;;;;0.00;0.00;;;;;;;2.49;74.16;98881.94;5022272;28;20420;-70
2023/02/18 07:41:18;;;;;;;0.00;0.00;;;;;;;2.51;74.32;98881.94;5021332;28;20049;-71
2023/02/18 07:43:45;;;;;;;0.00;0.00;;;;;;;2.50;74.41;98887.94;5020210;28;20038;-70
2023/02/18 07:46:12;;;;;;;0.00;0.00;;;;;;;2.53;74.67;98882.75;5019724;28;20046;-71
2023/02/18 07:48:39;;;;;;;0.00;0.00;;;;;;;2.53;74.08;98890.47;5021044;28;20037;-71
2023/02/18 07:51:07;;;;;;;0.40;0.00;;;;;;;2.54;74.77;98893.03;5019800;28;20125;-70
2023/02/18 07:53:34;;;;;;;0.08;0.00;;;;;;;2.55;74.50;98899.03;5020991;28;20045;-71
2023/02/18 07:56:03;;;;;;;0.00;0.00;;;;;;;2.51;74.41;98895.66;5018626;28;20053;-71
2023/02/18 07:58:32;;;;;;;0.00;0.00;;;;;;;2.55;74.38;98907.63;5019885;28;20132;-71
2023/02/18 08:00:59;;;;;;;0.00;0.00;;;;;;;2.56;74.28;98909.34;5020022;28;20049;-69
2023/02/18 08:03:28;;;;;;;0.00;0.00;;;;;;;2.55;74.37;98910.19;5022550;28;20051;-69
2023/02/18 08:05:55;;;;;;;0.00;0.00;;;;;;;2.56;74.09;98908.47;5021810;28;20041;-69
2023/02/18 08:08:25;;;;;;;0.00;0.00;;;;;;;2.49;74.20;98912.88;5020556;28;20054;-69
2023/02/18 08:10:52;;;;;;;0.00;0.00;;;;;;;2.57;74.14;98923.91;5020302;28;20521;-70
2023/02/18 08:13:21;;;;;;;0.00;0.00;;;;;;;2.50;74.29;98921.44;5021469;28;20136;-69
2023/02/18 08:15:48;;;;;;;0.10;0.05;;;;;;;2.58;74.09;98935.06;5021046;28;20056;-69
2023/02/18 08:18:18;;;;;;;0.00;0.00;;;;;;;2.60;73.98;98951.38;5017903;28;20045;-69
2023/02/18 08:20:46;;;;;;;0.00;0.00;;;;;;;2.59;73.85;98952.22;5023001;28;20049;-68
2023/02/18 08:23:13;;;;;;;0.10;0.00;;;;;;;2.62;73.92;98965.09;5020581;28;20137;-69
2023/02/18 08:25:40;;;;;;;0.08;0.00;;;;;;;2.61;74.21;98960.78;5017758;28;20461;-70
2023/02/18 08:28:07;;;;;;;0.00;0.00;;;;;;;2.62;74.11;98968.53;5015549;28;20105;-69
2023/02/18 08:30:35;;;;;;;3.83;0.00;;;;;;;2.64;74.03;98978.78;5020977;28;20052;-70
2023/02/18 08:33:02;;;;;;;0.00;0.00;;;;;;;2.64;74.05;98971.91;5020032;28;20445;-70
2023/02/18 08:35:29;;;;;;;0.10;0.10;;;;;;;2.66;73.57;98989.94;5021098;28;20050;-73
2023/02/18 08:37:56;;;;;;;0.00;0.00;;;;;;;2.65;73.48;98991.69;5021990;28;20498;-74
2023/02/18 08:40:23;;;;;;;0.00;0.00;;;;;;;2.69;73.88;98985.59;5022560;28;20056;-72
2023/02/18 08:42:50;;;;;;;0.00;0.00;;;;;;;2.69;73.80;98995.06;5025599;28;20486;-73
2023/02/18 08:45:17;;;;;;;0.00;0.00;;;;;;;2.69;73.80;98988.16;5019109;28;20047;-76
2023/02/18 08:47:45;;;;;;;0.00;0.00;;;;;;;2.72;73.63;98999.31;5012251;28;20042;-73
2023/02/18 08:50:12;;;;;;;0.00;0.00;;;;;;;2.72;73.54;99007.88;5015132;28;20053;-76
2023/02/18 08:52:39;;;;;;;0.45;0.00;;;;;;;2.74;74.04;98977.78;5017998;28;20048;-74
2023/02/18 08:55:07;;;;;;;0.80;0.00;;;;;;;2.75;73.45;99009.56;5017554;28;20046;-73
2023/02/18 08:57:34;;;;;;;0.05;0.00;;;;;;;2.74;73.62;99008.72;5019130;28;20509;-74
2023/02/18 09:00:01;;;;;;;0.05;0.00;;;;;;;2.79;73.95;99013.78;5018905;28;20054;-74
2023/02/18 09:02:28;;;;;;;0.00;0.00;;;;;;;2.79;73.75;99018.94;5019769;28;20565;-73
2023/02/18 09:04:56;;;;;;;0.00;0.00;;;;;;;2.78;73.65;99025.84;5021008;28;20042;-74
2023/02/18 09:07:23;;;;;;;0.25;0.00;;;;;;;2.80;73.41;99026.69;5022550;28;20041;-74
2023/02/18 09:09:50;;;;;;;0.00;0.00;;;;;;;2.83;73.58;99043.84;5025409;28;20041;-74
2023/02/18 09:12:17;;;;;;;1.60;0.35;;;;;;;2.84;73.18;99046.38;5020169;28;20053;-74
2023/02/18 09:14:44;;;;;;;0.00;0.00;;;;;;;2.82;73.75;99052.47;5024208;28;20045;-75
2023/02/18 09:17:11;;;;;;;0.00;0.00;;;;;;;2.88;73.65;99053.22;5024847;28;20077;-75
2023/02/18 09:19:37;;;;;;;0.10;0.00;;;;;;;2.90;73.73;99064.38;5023572;28;20052;-75
2023/02/18 09:22:06;;;;;;;0.00;0.00;;;;;;;2.91;73.21;99071.22;5027296;28;20051;-75
2023/02/18 09:24:37;;;;;;;0.10;0.00;;;;;;;2.93;73.40;99061.75;5023474;28;20046;-75
2023/02/18 09:27:04;;;;;;;0.10;0.00;;;;;;;2.93;73.20;99073.75;5024014;28;20054;-75
2023/02/18 09:29:32;;;;;;;0.00;0.00;;;;;;;2.98;73.17;99073.69;5022389;28;20056;-74
2023/02/18 09:32:00;;;;;;;0.93;0.00;;;;;;;2.99;73.50;99083.13;5021299;28;20060;-75
2023/02/18 09:34:27;;;;;;;1.38;0.10;;;;;;;3.01;73.56;99089.13;5022627;28;20405;-74
2023/02/18 09:36:54;;;;;;;2.83;0.00;;;;;;;3.03;73.28;99089.97;5021939;28;20100;-75
2023/02/18 09:39:22;;;;;;;0.00;0.00;;;;;;;3.05;73.04;99096.81;5024813;28;20494;-75
2023/02/18 09:41:52;;;;;;;0.00;0.00;;;;;;;3.09;72.92;99105.34;5023385;28;20500;-75
2023/02/18 09:44:25;;;;;;;0.43;0.00;;;;;;;3.11;72.61;99101.03;5021520;28;20049;-75
2023/02/18 09:46:55;;;;;;;0.00;0.00;;;;;;;3.12;72.81;99106.16;5027514;28;20049;-74
2023/02/18 09:49:25;;;;;;;0.17;0.00;;;;;;;3.14;73.23;99117.31;5023325;28;20041;-75
2023/02/18 09:51:54;;;;;;;0.22;0.00;;;;;;;3.10;72.61;99105.34;5025296;28;20053;-75
2023/02/18 09:54:22;;;;;;;0.00;0.00;;;;;;;3.20;72.78;99126.69;5023377;28;20099;-75
2023/02/18 09:56:51;;;;;;;0.00;0.00;;;;;;;3.21;72.60;99120.63;5021783;28;20418;-75
2023/02/18 09:59:21;;;;;;;0.20;0.00;;;;;;;3.24;72.39;99123.16;5020414;28;20046;-75
2023/02/18 10:01:50;;;;;;;0.00;0.00;;;;;;;3.26;72.47;99131.75;5024174;28;20050;-75
2023/02/18 10:04:22;;;;;;;1.50;0.05;;;;;;;3.27;72.63;99124.84;5024107;28;20514;-75
2023/02/18 10:06:51;;;;;;;0.28;0.00;;;;;;;3.30;72.13;99135.13;5026148;28;20058;-75
2023/02/18 10:09:23;;;;;;;0.00;0.00;;;;;;;3.31;72.27;99137.69;5024695;28;20050;-75
2023/02/18 10:11:55;;;;;;;0.43;0.00;;;;;;;3.33;72.34;99142.81;5023287;28;20042;-75
2023/02/18 10:14:21;;;;;;;0.00;0.00;;;;;;;3.34;72.10;99145.38;5024106;28;20543;-75
2023/02/18 10:16:50;;;;;;;0.00;0.00;;;;;;;3.33;72.04;99142.81;5017291;28;20052;-75
2023/02/18 10:19:25;;;;;;;0.05;0.00;;;;;;;3.37;71.97;99144.50;5020447;28;20060;-75
2023/02/18 10:21:53;;;;;;;0.75;0.00;;;;;;;3.37;72.09;99147.06;5019751;28;20132;-76
2023/02/18 10:24:29;;;;;;;2.40;0.10;;;;;;;3.38;72.03;99153.94;5021730;28;20059;-75
2023/02/18 10:26:56;;;;;;;0.40;0.00;;;;;;;3.41;71.89;99155.59;5023800;28;20520;-77
2023/02/18 10:29:24;;;;;;;0.08;0.00;;;;;;;3.44;71.78;99160.72;5022398;28;20060;-76
2023/02/18 10:31:56;;;;;;;1.85;0.20;;;;;;;3.44;71.92;99160.72;5021633;28;20045;-75
2023/02/18 10:34:37;;;;;;;0.40;0.10;;;;;;;3.46;71.79;99172.72;5021177;28;20049;-75
2023/02/18 10:37:11;;;;;;;0.10;0.00;;;;;;;3.48;71.47;99172.72;5019975;28;20064;-75
2023/02/18 10:39:51;;;;;;;0.20;0.00;;;;;;;3.50;71.47;99176.13;5023574;28;20049;-75
2023/02/18 10:42:32;;;;;;;0.20;0.00;;;;;;;3.51;71.86;99167.50;5024006;28;20056;-74
2023/02/18 10:45:09;;;;;;;0.68;0.03;;;;;;;3.50;71.40;99177.00;5020606;28;20056;-74
2023/02/18 10:47:43;;;;;;;0.73;0.10;;;;;;;3.55;71.53;99179.47;5022424;28;20042;-74
2023/02/18 10:50:12;;;;;;;0.10;0.00;;;;;;;3.56;71.78;99181.22;5022354;28;20056;-73
2023/02/18 10:52:43;;;;;;;0.45;0.08;;;;;;;3.57;71.50;99191.50;5021042;28;20046;-74
2023/02/18 10:55:14;;;;;;;0.90;0.10;;;;;;;3.60;71.34;99198.34;5024111;28;20140;-73
2023/02/18 10:57:49;;;;;;;0.38;0.00;;;;;;;3.62;71.56;99191.44;5025050;28;20050;-74
2023/02/18 11:00:18;;;;;;;0.80;0.10;;;;;;;3.63;71.50;99195.72;5018495;28;20050;-74
2023/02/18 11:02:47;;;;;;;0.30;0.10;;;;;;;3.66;71.57;99197.41;5020812;28;20045;-74
2023/02/18 11:05:22;;;;;;;1.70;0.10;;;;;;;3.66;71.42;99202.56;5022949;28;20061;-74
2023/02/18 11:07:53;;;;;;;0.00;0.00;;;;;;;3.67;71.60;99207.72;5016455;28;20056;-74
2023/02/18 11:10:24;;;;;;;2.38;0.10;;;;;;;3.68;71.63;99212.00;5020726;28;20045;-73
2023/02/18 11:12:56;;;;;;;0.90;0.10;;;;;;;3.69;71.43;99205.94;5021556;28;20045;-74
2023/02/18 11:15:25;;;;;;;0.10;0.10;;;;;;;3.69;71.77;99205.09;5017987;28;20412;-73
2023/02/18 11:17:54;;;;;;;0.17;0.00;;;;;;;3.69;71.56;99208.53;5019664;28;20381;-74
2023/02/18 11:20:25;;;;;;;1.85;0.35;;;;;;;3.73;71.55;99215.34;5021672;28;20513;-74
2023/02/18 11:22:53;;;;;;;1.63;0.00;;;;;;;3.73;71.85;99204.16;5020968;28;20589;-74
2023/02/18 11:25:24;;;;;;;1.48;0.00;;;;;;;3.77;71.58;99204.09;5023174;28;20045;-74
2023/02/18 11:27:55;;;;;;;0.45;0.10;;;;;;;3.79;71.66;99210.09;5020230;28;20037;-74
2023/02/18 11:30:25;;;;;;;1.17;0.10;;;;;;;3.80;71.40;99222.13;5021188;28;20064;-75
2023/02/18 11:32:57;;;;;;;0.52;0.00;;;;;;;3.82;71.25;99224.69;5021555;28;20115;-74
2023/02/18 11:35:27;;;;;;;1.08;0.10;;;;;;;3.81;71.01;99221.25;5018287;28;20061;-74
2023/02/18 11:37:57;;;;;;;0.90;0.30;;;;;;;3.83;71.06;99229.81;5019968;28;20056;-74
2023/02/18 11:40:30;;;;;;;0.80;0.20;;;;;;;3.87;71.15;99224.59;5021082;28;20056;-74
2023/02/18 11:43:04;;;;;;;0.10;0.00;;;;;;;3.83;70.86;99216.06;5016913;28;20050;-74
2023/02/18 11:45:33;;;;;;;2.78;0.20;;;;;;;3.89;70.91;99239.19;5020092;28;20053;-73
2023/02/18 11:48:01;;;;;;;1.98;0.10;;;;;;;3.86;70.70;99221.16;5020006;28;20051;-73
2023/02/18 11:50:32;;;;;;;0.93;0.10;;;;;;;3.92;70.64;99236.56;5020019;28;20475;-73